Yellowstone National Park, WY (82190)

11:47 PM MDT on August 30, 2015 (GMT -0600)
Yellowstone | | Change Station
CLOSE
Current Station
Airport
Location: West Yellowstone,
Elevation: 6644 ft
Nearby Weather Stations

Elev 6644 ft 44.69 °N, 111.12 °W | Updated 42 minutes ago

Clear
Clear
55 °F
Feels Like 55 °F
N
8
Wind Variable Wind from SSW

Today
High -- | Low -- °F
--% Chance of Precip.
Yesterday
High -- | Low -- °F
Precip. -- in
6:41 AM 8:02 PM
Full, 97% visible
Pressure 30.09 in
Visibility 10.0 miles
Clouds Clear
Dew Point 23 °F
Humidity 29%
Rainfall 0.04 in
Snow Depth Not available.
UV 0 out of 12
Pollen 9.10 out of 12
Air Quality Not available.
Flu Activity Not available.
METAR KWYS 310505Z AUTO 21007KT 10SM CLR 13/M05 A3009 RMK AO2
Pressure 30.09 in
Visibility 10.0 miles
Clouds Clear
Dew Point 23 °F
Humidity 29%
Rainfall 0.04 in
Snow Depth Not available.
UV 0 out of 12
Pollen 9.10 out of 12
Air Quality Not available.
Flu Activity Not available.
METAR KWYS 310505Z AUTO 21007KT 10SM CLR 13/M05 A3009 RMK AO2

10-Day Weather Forecast

×

Almanac

Astronomy

Aug. 30, 2015 Rise Set
Actual Time
Civil Twilight
Nautical Twilight
Astronomical Twilight
Moon
Length of Visible Light
Length of Day
Tomorrow will be .
, % of the Moon is Illuminated

Today's Extremes

State Highs State Lows

Community

WunderPhotos

Upload Photos

1,851,215 photos uploaded!

WunderBlogs® & News

Nearby

Air Quality

  Air Quality AQ Index Pollutant
Not available.

Snow Depth

Station Depth Elevation

Earthquake Activity

City Distance Mag. Time & Date
Minimum magnitude displayed is 2.5.

Coastal Water Temperatures

Place Temperature

Stations

Nearby Weather Stations

Station Location Temp. Windchill Dew Point Humidity Wind Precip. Elev Updated Type